Manville, South Carolina
Current Conditions -  °F | °C
As of 12:35 AM on Thursday 27 Nov 2014 (Local Time) from KCDN Reporting Station
Clear Clear  
Wind Chill: 38°   Ceiling: Unl
Heat Index: 41°   Visibility: 10mi
Dew Point: 37°   Wind: 5mph
Humidity: 87%   Direction: 190°S
Pressure: 30.07"   Gusts: NA
Location:  34.2324°N, 80.2824°W
Report Text: KCDN 270535Z AUTO 19004KT 10SM CLR 05/03 A3007 RMK AO2 TSNO
Loading
Personal Weather Stations






























Interactive Weather Map New forecast layout! Learn more

10-Day Weather Forecast

Advertisements
Track Severe Weather on mobile